createdAt,value
2018-07-09T00:00:26.594Z,85.90
2018-07-09T00:02:31.336Z,85.50
2018-07-09T00:04:36.581Z,85.70
2018-07-09T00:06:41.538Z,86.20
2018-07-09T00:08:46.394Z,86.50
2018-07-09T00:11:07.685Z,86.80
2018-07-09T00:13:12.662Z,87.10
2018-07-09T00:15:17.527Z,87.80
2018-07-09T00:19:26.795Z,88.80
2018-07-09T00:21:32.152Z,88.50
2018-07-09T00:23:36.942Z,89.00
2018-07-09T00:25:41.874Z,89.80
2018-07-09T00:27:46.793Z,90.10
2018-07-09T00:29:51.654Z,90.10
2018-07-09T00:31:56.460Z,90.10
2018-07-09T00:34:01.430Z,90.20
2018-07-09T00:36:06.292Z,90.30
2018-07-09T00:38:11.158Z,90.40
2018-07-09T00:40:16.080Z,90.50
2018-07-09T00:42:21.099Z,90.70
2018-07-09T00:44:26.436Z,90.80
2018-07-09T00:46:31.234Z,90.80
2018-07-09T00:48:36.066Z,90.70
2018-07-09T00:50:40.861Z,90.80
2018-07-09T00:52:46.001Z,91.00
2018-07-09T00:54:50.696Z,91.10
2018-07-09T00:56:55.484Z,91.30
2018-07-09T00:59:00.455Z,91.60
2018-07-09T01:01:05.532Z,91.40
2018-07-09T01:03:11.322Z,91.60
2018-07-09T01:05:16.194Z,92.00
2018-07-09T01:07:21.087Z,92.10
2018-07-09T01:09:25.946Z,91.90
2018-07-09T01:11:46.474Z,92.10
2018-07-09T01:13:51.957Z,92.40
2018-07-09T01:15:56.875Z,92.70
2018-07-09T01:18:01.744Z,92.70
2018-07-09T01:20:06.591Z,92.70
2018-07-09T01:22:11.447Z,93.10
2018-07-09T01:24:16.283Z,93.30
2018-07-09T01:26:21.152Z,93.30
2018-07-09T01:28:25.936Z,93.40
2018-07-09T01:30:36.431Z,93.50
2018-07-09T01:32:41.664Z,93.80
2018-07-09T01:34:46.700Z,93.80
2018-07-09T01:36:51.609Z,94.00
2018-07-09T01:38:56.467Z,94.10
2018-07-09T01:41:01.243Z,94.30
2018-07-09T01:43:06.125Z,94.40
2018-07-09T01:45:11.049Z,94.60
2018-07-09T01:47:15.749Z,94.60
2018-07-09T01:51:21.767Z,94.70
2018-07-09T01:53:26.547Z,94.90
2018-07-09T01:55:31.322Z,95.10
2018-07-09T01:57:36.195Z,94.80
2018-07-09T01:59:41.053Z,95.10
2018-07-09T02:01:45.902Z,95.30
2018-07-09T02:03:50.796Z,95.90
2018-07-09T02:05:55.569Z,96.10
2018-07-09T02:08:00.315Z,96.10
2018-07-09T02:10:05.060Z,96.30
2018-07-09T02:12:09.879Z,96.50
2018-07-09T02:14:14.617Z,96.70
2018-07-09T02:16:19.460Z,96.80
2018-07-09T02:18:24.261Z,97.10
2018-07-09T02:20:29.474Z,97.00
2018-07-09T02:22:34.130Z,97.20
2018-07-09T02:24:40.302Z,97.20
2018-07-09T02:26:45.039Z,97.60
2018-07-09T02:28:50.501Z,97.90
2018-07-09T02:30:55.365Z,97.90
2018-07-09T02:33:00.223Z,98.10
2018-07-09T02:35:04.964Z,98.20
2018-07-09T02:37:09.831Z,98.20
2018-07-09T02:39:14.492Z,98.10
2018-07-09T02:41:19.196Z,98.40
2018-07-09T02:43:24.018Z,98.30
2018-07-09T02:45:28.790Z,98.50
2018-07-09T02:47:34.357Z,98.60
2018-07-09T02:49:39.097Z,98.80
2018-07-09T02:51:43.819Z,99.20
2018-07-09T02:53:48.650Z,99.20
2018-07-09T02:55:53.371Z,99.50
2018-07-09T02:57:58.092Z,99.60
2018-07-09T03:00:02.894Z,99.40
2018-07-09T03:02:07.683Z,99.20
2018-07-09T03:04:12.542Z,99.20
2018-07-09T03:06:17.406Z,99.40
2018-07-09T03:08:22.196Z,99.80
2018-07-09T03:10:27.045Z,99.80
2018-07-09T03:12:31.877Z,99.90
2018-07-09T03:14:36.750Z,99.90
2018-07-09T03:16:41.399Z,99.90
2018-07-09T03:18:46.218Z,99.90
2018-07-09T03:20:51.232Z,99.90
2018-07-09T03:22:56.096Z,99.90
2018-07-09T03:25:01.035Z,99.90
2018-07-09T03:27:06.004Z,99.90
2018-07-09T03:29:11.063Z,99.90
2018-07-09T03:31:15.839Z,99.90
2018-07-09T03:33:20.810Z,99.90
2018-07-09T03:35:25.991Z,99.90
2018-07-09T03:37:31.038Z,99.90
2018-07-09T03:39:36.242Z,99.90
2018-07-09T03:41:41.257Z,99.90
2018-07-09T03:43:46.322Z,99.90
2018-07-09T03:45:51.592Z,99.90
2018-07-09T03:47:56.704Z,99.90
2018-07-09T03:50:01.764Z,99.90
2018-07-09T03:52:06.902Z,99.90
2018-07-09T03:56:54.532Z,99.90
2018-07-09T03:58:59.460Z,99.90
2018-07-09T04:01:04.253Z,99.90
2018-07-09T04:03:09.093Z,99.90
2018-07-09T04:05:13.812Z,99.90
2018-07-09T04:07:18.535Z,99.90
2018-07-09T04:09:23.246Z,99.90
2018-07-09T04:11:28.040Z,99.90
2018-07-09T04:13:33.276Z,99.90
2018-07-09T04:15:38.057Z,99.90
2018-07-09T04:17:42.877Z,99.90
2018-07-09T04:19:47.634Z,99.90
2018-07-09T04:21:52.384Z,99.90
2018-07-09T04:23:57.248Z,99.90
2018-07-09T04:26:02.173Z,99.90
2018-07-09T04:28:07.210Z,99.90
2018-07-09T04:30:11.912Z,99.90
2018-07-09T04:32:16.618Z,99.90
2018-07-09T04:34:21.311Z,99.90
2018-07-09T04:36:26.054Z,99.90
2018-07-09T04:38:31.228Z,99.90
2018-07-09T04:40:35.930Z,99.90
2018-07-09T04:42:40.845Z,99.90
2018-07-09T04:44:45.606Z,99.90
2018-07-09T04:46:50.690Z,99.90
2018-07-09T04:48:55.468Z,99.90
2018-07-09T04:51:00.197Z,99.90
2018-07-09T04:53:05.709Z,99.90
2018-07-09T04:55:15.415Z,99.90
2018-07-09T04:57:20.143Z,99.90
2018-07-09T04:59:24.888Z,99.90
2018-07-09T05:01:29.962Z,99.90
2018-07-09T05:03:34.717Z,99.90
2018-07-09T05:05:39.542Z,99.90
2018-07-09T05:07:44.530Z,99.90
2018-07-09T05:09:49.378Z,99.90
2018-07-09T05:11:54.188Z,99.90
2018-07-09T05:13:59.424Z,99.90
2018-07-09T05:16:04.732Z,99.90
2018-07-09T05:18:09.590Z,99.90
2018-07-09T05:20:14.496Z,99.90
2018-07-09T05:22:19.351Z,99.90
2018-07-09T05:24:26.211Z,99.90
2018-07-09T05:26:31.180Z,99.90
2018-07-09T05:28:35.901Z,99.90
2018-07-09T05:30:40.928Z,99.90
2018-07-09T05:32:45.743Z,99.90
2018-07-09T05:34:50.618Z,99.90
2018-07-09T05:36:55.411Z,99.90
2018-07-09T05:39:00.273Z,99.90
2018-07-09T05:41:05.130Z,99.90
2018-07-09T05:43:09.938Z,99.90
2018-07-09T05:45:15.221Z,99.90
2018-07-09T05:47:20.167Z,99.90
2018-07-09T05:49:25.438Z,99.90
2018-07-09T05:51:30.477Z,99.90
2018-07-09T05:53:35.287Z,99.90
2018-07-09T05:55:40.106Z,99.90
2018-07-09T05:57:45.013Z,99.90
2018-07-09T05:59:49.916Z,99.90
2018-07-09T06:01:54.669Z,99.80
2018-07-09T06:03:59.489Z,99.90
2018-07-09T06:06:04.512Z,99.70
2018-07-09T06:08:09.516Z,99.80
2018-07-09T06:10:14.586Z,99.50
2018-07-09T06:12:19.569Z,99.20
2018-07-09T06:14:24.407Z,98.60
2018-07-09T06:16:29.597Z,98.30
2018-07-09T06:18:34.402Z,98.20
2018-07-09T06:20:39.350Z,98.10
2018-07-09T06:22:44.421Z,98.50
2018-07-09T06:24:50.113Z,98.50
2018-07-09T06:26:55.016Z,97.60
2018-07-09T06:29:00.182Z,97.00
2018-07-09T06:31:05.225Z,96.20
2018-07-09T06:33:10.413Z,96.20
2018-07-09T06:35:15.257Z,96.30
2018-07-09T06:37:21.701Z,95.40
2018-07-09T06:39:26.658Z,95.10
2018-07-09T06:41:31.834Z,94.30
2018-07-09T06:43:36.917Z,93.60
2018-07-09T06:45:41.858Z,94.20
2018-07-09T06:47:46.892Z,93.70
2018-07-09T06:49:51.814Z,93.50
2018-07-09T06:51:56.714Z,93.20
2018-07-09T06:54:01.500Z,93.40
2018-07-09T06:56:06.486Z,93.60
2018-07-09T06:58:11.848Z,93.20
2018-07-09T07:00:16.749Z,93.30
2018-07-09T07:02:21.675Z,93.50
2018-07-09T07:04:26.453Z,93.40
2018-07-09T07:06:31.586Z,93.20
2018-07-09T07:08:36.480Z,93.00
2018-07-09T07:10:47.872Z,92.90
2018-07-09T07:12:52.803Z,92.90
2018-07-09T07:14:57.697Z,92.50
2018-07-09T07:17:02.628Z,91.70
2018-07-09T07:19:07.487Z,91.60
2018-07-09T07:21:13.588Z,91.50
2018-07-09T07:23:18.416Z,91.50
2018-07-09T07:25:23.959Z,91.40
2018-07-09T07:27:28.746Z,91.30
2018-07-09T07:29:33.535Z,91.30
2018-07-09T07:31:38.694Z,90.70
2018-07-09T07:33:43.516Z,91.00
2018-07-09T07:35:48.353Z,90.40
2018-07-09T07:37:53.505Z,90.30
2018-07-09T07:39:58.348Z,90.10
2018-07-09T07:42:03.261Z,89.80
2018-07-09T07:44:08.112Z,90.00
2018-07-09T07:46:12.893Z,89.00
2018-07-09T07:48:17.868Z,88.60
2018-07-09T07:50:22.835Z,89.20
2018-07-09T07:52:27.666Z,87.60
2018-07-09T07:54:32.647Z,87.20
2018-07-09T07:58:44.952Z,86.20
2018-07-09T08:00:49.860Z,84.70
2018-07-09T08:02:55.488Z,84.50
2018-07-09T08:05:00.312Z,83.70
2018-07-09T08:07:05.273Z,83.90
2018-07-09T08:09:10.224Z,83.20
2018-07-09T08:11:15.225Z,83.50
2018-07-09T08:13:29.351Z,83.10
2018-07-09T08:15:27.117Z,83.20
2018-07-09T08:17:32.159Z,82.50
2018-07-09T08:19:37.262Z,81.20
2018-07-09T08:21:42.148Z,82.20
2018-07-09T08:23:46.978Z,82.10
2018-07-09T08:25:51.863Z,82.10
2018-07-09T08:27:56.657Z,81.40
2018-07-09T08:30:01.777Z,81.10
2018-07-09T08:32:07.985Z,81.30
2018-07-09T08:34:12.881Z,80.20
2018-07-09T08:36:17.780Z,80.50
2018-07-09T08:38:22.782Z,80.60
2018-07-09T08:40:27.721Z,80.60
2018-07-09T08:42:32.657Z,80.40
2018-07-09T08:44:39.413Z,80.70
2018-07-09T08:46:44.314Z,80.40
2018-07-09T08:48:49.266Z,80.60
2018-07-09T08:50:54.720Z,79.40
2018-07-09T08:52:59.751Z,80.30
2018-07-09T08:55:06.522Z,80.00
2018-07-09T08:57:11.365Z,79.60
2018-07-09T08:59:16.191Z,79.20
2018-07-09T09:01:21.108Z,79.00
2018-07-09T09:03:26.049Z,79.00
2018-07-09T09:05:31.118Z,78.90
2018-07-09T09:07:36.282Z,78.00
2018-07-09T09:09:41.503Z,77.40
2018-07-09T09:11:46.267Z,77.40
2018-07-09T09:13:51.565Z,77.50
2018-07-09T09:15:56.558Z,76.80
2018-07-09T09:18:01.901Z,75.30
2018-07-09T09:20:06.825Z,76.00
2018-07-09T09:22:12.628Z,75.80
2018-07-09T09:24:18.029Z,74.00
2018-07-09T09:26:22.945Z,72.40
2018-07-09T09:28:27.769Z,72.40
2018-07-09T09:30:32.760Z,71.30
2018-07-09T09:32:38.180Z,70.50
2018-07-09T09:34:43.852Z,70.50
2018-07-09T09:36:49.745Z,70.80
2018-07-09T09:38:55.017Z,70.80
2018-07-09T09:40:59.899Z,70.50
2018-07-09T09:43:05.511Z,71.10
2018-07-09T09:47:24.285Z,70.20
2018-07-09T09:49:29.815Z,69.60
2018-07-09T09:51:34.787Z,68.50
2018-07-09T09:53:40.108Z,69.40
2018-07-09T09:55:45.350Z,69.60
2018-07-09T09:57:50.535Z,70.50
2018-07-09T09:59:55.621Z,70.50
2018-07-09T10:02:00.638Z,70.40
2018-07-09T10:04:05.433Z,69.50
2018-07-09T10:06:10.445Z,70.10
2018-07-09T10:08:15.294Z,71.60
2018-07-09T10:10:20.098Z,70.00
2018-07-09T10:12:24.940Z,69.60
2018-07-09T10:14:30.522Z,69.00
2018-07-09T10:16:35.387Z,68.60
2018-07-09T10:18:40.480Z,67.50
2018-07-09T10:20:45.322Z,68.50
2018-07-09T10:22:50.198Z,69.30
2018-07-09T10:24:54.975Z,68.70
2018-07-09T10:26:59.834Z,69.20
2018-07-09T10:29:04.611Z,68.40
2018-07-09T10:31:09.560Z,68.40
2018-07-09T10:33:14.405Z,68.40
2018-07-09T10:35:19.220Z,67.70
2018-07-09T10:37:24.022Z,68.40
2018-07-09T10:39:30.131Z,67.60
2018-07-09T10:41:34.984Z,67.90
2018-07-09T10:43:40.080Z,68.60
2018-07-09T10:45:46.359Z,68.60
2018-07-09T10:47:51.337Z,67.40
2018-07-09T10:49:56.395Z,66.10
2018-07-09T10:52:01.244Z,66.20
2018-07-09T10:54:06.020Z,65.60
2018-07-09T10:56:10.877Z,65.00
2018-07-09T10:58:16.123Z,64.00
2018-07-09T11:00:21.251Z,64.10
2018-07-09T11:02:26.265Z,64.50
2018-07-09T11:04:31.231Z,63.70
2018-07-09T11:06:36.012Z,63.00
2018-07-09T11:08:41.168Z,62.80
2018-07-09T11:10:46.256Z,63.70
2018-07-09T11:12:53.879Z,64.40
2018-07-09T11:15:01.053Z,64.10
2018-07-09T11:17:07.010Z,64.50
2018-07-09T11:19:12.403Z,65.20
2018-07-09T11:21:17.394Z,65.30
2018-07-09T11:23:22.620Z,65.80
2018-07-09T11:25:27.876Z,65.50
2018-07-09T11:29:39.359Z,66.00
2018-07-09T11:31:44.542Z,66.60
2018-07-09T11:33:50.315Z,66.00
2018-07-09T11:35:55.828Z,66.00
2018-07-09T11:38:01.590Z,66.10
2018-07-09T11:40:06.400Z,66.00
2018-07-09T11:42:11.222Z,66.30
2018-07-09T11:44:16.160Z,66.50
2018-07-09T11:46:21.240Z,66.90
2018-07-09T11:48:26.104Z,66.90
2018-07-09T11:50:31.345Z,66.20
2018-07-09T11:52:36.804Z,64.80
2018-07-09T11:54:41.785Z,65.60
2018-07-09T11:56:46.539Z,64.20
2018-07-09T11:58:51.424Z,63.60
2018-07-09T12:00:56.700Z,64.90
2018-07-09T12:03:02.185Z,64.90
2018-07-09T12:05:08.186Z,64.70
2018-07-09T12:07:13.584Z,64.00
2018-07-09T12:09:18.624Z,64.80
2018-07-09T12:11:24.496Z,64.40
2018-07-09T12:13:29.611Z,64.50
2018-07-09T12:15:34.433Z,65.10
2018-07-09T12:17:39.996Z,65.70
2018-07-09T12:19:45.424Z,64.80
2018-07-09T12:21:50.369Z,64.70
2018-07-09T12:23:55.671Z,64.00
2018-07-09T12:26:00.940Z,63.70
2018-07-09T12:28:06.157Z,63.90
2018-07-09T12:30:11.070Z,64.30
2018-07-09T12:32:16.576Z,64.90
2018-07-09T12:34:21.669Z,65.40
2018-07-09T12:36:26.636Z,64.40
2018-07-09T12:38:31.862Z,64.40
2018-07-09T12:40:36.606Z,63.70
2018-07-09T12:42:47.030Z,63.90
2018-07-09T12:44:51.946Z,64.30
2018-07-09T12:46:56.768Z,64.70
2018-07-09T12:51:12.222Z,64.40
2018-07-09T12:53:17.222Z,65.70
2018-07-09T12:55:22.187Z,66.10
2018-07-09T12:57:27.157Z,66.40
2018-07-09T12:59:32.022Z,67.10
2018-07-09T13:01:37.118Z,67.50
2018-07-09T13:03:41.970Z,67.10
2018-07-09T13:05:46.832Z,67.30
2018-07-09T13:07:58.094Z,67.90
2018-07-09T13:10:03.008Z,68.00
2018-07-09T13:12:18.237Z,67.50
2018-07-09T13:14:23.071Z,67.30
2018-07-09T13:16:27.961Z,67.30
2018-07-09T13:18:32.889Z,66.90
2018-07-09T13:20:37.850Z,66.80
2018-07-09T13:22:42.666Z,66.30
2018-07-09T13:24:47.431Z,66.20
2018-07-09T13:26:52.216Z,65.10
2018-07-09T13:28:57.117Z,65.70
2018-07-09T13:31:02.018Z,66.10
2018-07-09T13:33:08.596Z,65.20
2018-07-09T13:35:13.448Z,65.70
2018-07-09T13:37:18.373Z,65.60
2018-07-09T13:39:23.488Z,65.70
2018-07-09T13:41:28.632Z,65.60
2018-07-09T13:43:33.869Z,65.60
2018-07-09T13:45:38.918Z,64.40
2018-07-09T13:47:45.137Z,64.60
2018-07-09T13:49:50.139Z,63.80
2018-07-09T13:51:55.131Z,63.80
2018-07-09T13:54:00.067Z,63.40
2018-07-09T13:56:05.272Z,63.30
2018-07-09T13:58:10.371Z,63.30
2018-07-09T14:00:15.493Z,62.70
2018-07-09T14:02:21.431Z,62.50
2018-07-09T14:04:26.341Z,62.10
2018-07-09T14:06:31.180Z,62.10
2018-07-09T14:08:36.619Z,62.70
2018-07-09T14:10:42.196Z,63.80
2018-07-09T14:12:48.292Z,64.70
2018-07-09T14:14:53.108Z,63.50
2018-07-09T14:16:58.937Z,63.10
2018-07-09T14:19:19.023Z,62.80
2018-07-09T14:21:24.403Z,62.80
2018-07-09T14:23:29.719Z,61.70
2018-07-09T14:25:34.652Z,62.20
2018-07-09T14:27:40.747Z,62.50
2018-07-09T14:29:47.033Z,63.60
2018-07-09T14:31:51.932Z,63.70
2018-07-09T14:33:56.969Z,64.70
2018-07-09T14:36:02.883Z,64.90
2018-07-09T14:38:09.905Z,65.10
2018-07-09T14:40:15.246Z,65.70
2018-07-09T14:42:20.058Z,66.20
2018-07-09T14:44:24.940Z,65.90
2018-07-09T14:46:29.830Z,65.80
2018-07-09T14:48:34.759Z,66.30
2018-07-09T14:50:39.522Z,65.90
2018-07-09T14:52:44.400Z,66.30
2018-07-09T14:54:49.330Z,65.70
2018-07-09T14:56:54.299Z,65.50
2018-07-09T14:58:59.199Z,64.70
2018-07-09T15:01:04.083Z,65.10
2018-07-09T15:03:09.020Z,65.40
2018-07-09T15:05:14.529Z,65.00
2018-07-09T15:07:19.436Z,64.80
2018-07-09T15:09:24.362Z,65.40
2018-07-09T15:11:29.205Z,65.70
2018-07-09T15:13:34.466Z,66.30
2018-07-09T15:17:44.266Z,67.10
2018-07-09T15:19:49.469Z,66.40
2018-07-09T15:21:54.434Z,66.40
2018-07-09T15:23:59.432Z,65.60
2018-07-09T15:26:04.375Z,65.40
2018-07-09T15:28:09.978Z,66.60
2018-07-09T15:30:14.726Z,67.50
2018-07-09T15:32:31.058Z,67.50
2018-07-09T15:34:36.108Z,67.80
2018-07-09T15:36:40.895Z,67.70
2018-07-09T15:38:46.049Z,68.20
2018-07-09T15:40:50.963Z,68.20
2018-07-09T15:42:55.944Z,68.70
2018-07-09T15:45:00.873Z,69.40
2018-07-09T15:47:06.067Z,70.10
2018-07-09T15:49:11.076Z,71.30
2018-07-09T15:51:15.893Z,72.20
2018-07-09T15:53:21.108Z,73.50
2018-07-09T15:55:25.846Z,74.20
2018-07-09T15:57:33.313Z,75.20
2018-07-09T15:59:40.873Z,75.30
2018-07-09T16:01:46.467Z,75.70
2018-07-09T16:03:52.600Z,77.00
2018-07-09T16:05:57.561Z,77.40
2018-07-09T16:08:02.409Z,77.70
2018-07-09T16:10:07.707Z,77.80
2018-07-09T16:12:13.825Z,77.80
2018-07-09T16:14:18.855Z,78.00
2018-07-09T16:16:23.709Z,78.10
2018-07-09T16:18:29.180Z,78.00
2018-07-09T16:20:37.312Z,78.10
2018-07-09T16:22:42.635Z,78.00
2018-07-09T16:24:47.389Z,77.40
2018-07-09T16:26:52.158Z,77.40
2018-07-09T16:28:56.954Z,77.50
2018-07-09T16:31:01.792Z,75.60
2018-07-09T16:33:07.187Z,74.80
2018-07-09T16:35:12.966Z,75.00
2018-07-09T16:37:18.548Z,74.10
2018-07-09T16:39:23.537Z,74.20
2018-07-09T16:41:28.477Z,74.60
2018-07-09T16:43:33.989Z,73.80
2018-07-09T16:45:39.026Z,73.60
2018-07-09T16:47:45.214Z,73.40
2018-07-09T16:49:56.299Z,72.60
2018-07-09T16:52:05.512Z,72.50
2018-07-09T16:54:10.605Z,73.10
2018-07-09T16:56:16.898Z,73.70
2018-07-09T16:58:22.053Z,74.50
2018-07-09T17:00:27.709Z,74.40
2018-07-09T17:02:32.502Z,73.60
2018-07-09T17:04:37.543Z,74.10
2018-07-09T17:06:42.488Z,74.30
2018-07-09T17:08:47.336Z,74.90
2018-07-09T17:10:52.119Z,75.30
2018-07-09T17:12:57.076Z,75.70
2018-07-09T17:15:02.529Z,76.20
2018-07-09T17:17:07.432Z,75.60
2018-07-09T17:19:12.243Z,75.90
2018-07-09T17:21:17.026Z,75.80
2018-07-09T17:23:21.905Z,76.30
2018-07-09T17:25:27.254Z,76.50
2018-07-09T17:27:32.461Z,76.90
2018-07-09T17:29:37.507Z,77.50
2018-07-09T17:31:42.367Z,78.00
2018-07-09T17:33:47.316Z,77.80
2018-07-09T17:35:52.512Z,78.60
2018-07-09T17:37:57.519Z,79.10
2018-07-09T17:40:02.583Z,79.40
2018-07-09T17:42:07.668Z,79.60
2018-07-09T17:44:12.658Z,79.90
2018-07-09T17:46:17.846Z,79.90
2018-07-09T17:48:22.685Z,80.00
2018-07-09T17:50:27.591Z,79.60
2018-07-09T17:52:32.629Z,80.10
2018-07-09T17:54:37.466Z,79.80
2018-07-09T17:56:42.252Z,80.00
2018-07-09T17:58:47.016Z,79.90
2018-07-09T18:00:51.848Z,80.20
2018-07-09T18:02:56.653Z,80.70
2018-07-09T18:05:02.050Z,81.40
2018-07-09T18:07:07.245Z,82.00
2018-07-09T18:09:12.089Z,82.80
2018-07-09T18:11:16.984Z,83.00
2018-07-09T18:13:21.822Z,83.70
2018-07-09T18:15:26.947Z,84.00
2018-07-09T18:17:31.852Z,84.50
2018-07-09T18:19:36.964Z,84.80
2018-07-09T18:21:42.372Z,85.50
2018-07-09T18:23:47.611Z,85.80
2018-07-09T18:25:52.748Z,86.20
2018-07-09T18:27:57.772Z,86.40
2018-07-09T18:30:03.920Z,86.80
2018-07-09T18:32:08.827Z,86.80
2018-07-09T18:34:13.785Z,87.10
2018-07-09T18:36:18.900Z,87.00
2018-07-09T18:38:24.838Z,87.60
2018-07-09T18:40:30.335Z,87.50
2018-07-09T18:42:35.766Z,87.50
2018-07-09T18:44:41.083Z,87.80
2018-07-09T18:46:50.666Z,87.50
2018-07-09T18:48:56.025Z,87.80
2018-07-09T18:51:01.231Z,88.20
2018-07-09T18:53:06.219Z,87.90
2018-07-09T18:55:11.391Z,88.00
2018-07-09T18:57:16.788Z,89.00
2018-07-09T18:59:21.988Z,86.60
2018-07-09T19:01:27.094Z,86.30
2018-07-09T19:03:32.729Z,86.60
2018-07-09T19:06:27.364Z,86.60
2018-07-09T19:08:33.655Z,86.80
2018-07-09T19:10:39.410Z,86.60
2018-07-09T19:12:45.051Z,87.10
2018-07-09T19:14:51.232Z,86.70
2018-07-09T19:18:16.123Z,86.90
2018-07-09T19:20:41.148Z,87.00
2018-07-09T19:22:45.235Z,88.40
2018-07-09T19:24:48.768Z,89.50
2018-07-09T19:26:51.845Z,89.60
2018-07-09T19:28:54.902Z,90.00
2018-07-09T19:30:58.143Z,90.20
2018-07-09T19:33:01.268Z,90.10
2018-07-09T19:35:06.006Z,90.30
2018-07-09T19:37:09.690Z,90.40
2018-07-09T19:39:14.466Z,90.20
2018-07-09T19:41:18.727Z,90.30
2018-07-09T19:43:24.397Z,90.50
2018-07-09T19:45:28.265Z,90.60
2018-07-09T19:47:31.488Z,90.70
2018-07-09T19:49:34.937Z,91.00
2018-07-09T19:51:38.926Z,91.40
2018-07-09T19:53:42.852Z,91.50
2018-07-09T19:55:46.307Z,91.80
2018-07-09T19:57:49.948Z,91.90
2018-07-09T19:59:53.820Z,91.90
2018-07-09T20:01:57.271Z,92.20
2018-07-09T20:04:00.315Z,92.20
2018-07-09T20:06:03.272Z,92.30
2018-07-09T20:08:07.139Z,92.50
2018-07-09T20:10:15.046Z,92.60
2018-07-09T20:12:23.127Z,92.80
2018-07-09T20:14:31.104Z,92.90
2018-07-09T20:16:39.148Z,93.20
2018-07-09T20:18:42.100Z,93.00
2018-07-09T20:20:45.500Z,93.20
2018-07-09T20:22:48.556Z,93.30
2018-07-09T20:24:51.508Z,93.40
2018-07-09T20:26:54.502Z,93.40
2018-07-09T20:28:57.449Z,93.70
2018-07-09T20:31:00.469Z,94.10
2018-07-09T20:33:06.504Z,94.00
2018-07-09T20:35:09.401Z,94.30
2018-07-09T20:37:13.989Z,94.60
2018-07-09T20:39:17.634Z,94.80
2018-07-09T20:41:20.558Z,95.20
2018-07-09T20:43:43.066Z,95.40
2018-07-09T20:45:46.173Z,96.00
2018-07-09T20:47:49.181Z,96.50
2018-07-09T20:49:52.067Z,96.70
2018-07-09T20:51:54.982Z,97.00
2018-07-09T20:53:57.964Z,96.80
2018-07-09T20:56:01.102Z,96.90
2018-07-09T20:58:04.149Z,97.10
2018-07-09T21:00:07.165Z,97.20
2018-07-09T21:02:10.110Z,97.00
2018-07-09T21:04:18.971Z,97.20
2018-07-09T21:06:22.662Z,97.30
2018-07-09T21:08:26.240Z,97.60
2018-07-09T21:10:29.576Z,97.60
2018-07-09T21:12:34.721Z,97.80
2018-07-09T21:14:37.740Z,98.30
2018-07-09T21:16:41.054Z,98.00
2018-07-09T21:18:44.263Z,98.20
2018-07-09T21:20:47.128Z,98.30
2018-07-09T21:22:50.357Z,98.50
2018-07-09T21:24:53.564Z,98.30
2018-07-09T21:26:56.505Z,98.20
2018-07-09T21:28:59.480Z,98.00
2018-07-09T21:31:02.427Z,97.50
2018-07-09T21:33:05.400Z,97.40
2018-07-09T21:35:08.364Z,97.30
2018-07-09T21:37:11.273Z,97.00
2018-07-09T21:39:14.197Z,96.70
2018-07-09T21:41:17.125Z,96.20
2018-07-09T21:43:20.083Z,95.90
2018-07-09T21:45:22.947Z,95.60
2018-07-09T21:47:25.889Z,95.50
2018-07-09T21:49:29.016Z,95.60
2018-07-09T21:51:32.523Z,95.60
2018-07-09T21:53:35.572Z,95.20
2018-07-09T21:55:38.647Z,95.10
2018-07-09T21:57:41.610Z,94.80
2018-07-09T21:59:44.605Z,95.00
2018-07-09T22:01:47.575Z,95.30
2018-07-09T22:03:50.468Z,94.70
2018-07-09T22:05:53.496Z,94.80
2018-07-09T22:07:56.417Z,95.20
2018-07-09T22:09:59.436Z,95.30
2018-07-09T22:12:02.379Z,95.30
2018-07-09T22:14:05.495Z,95.50
2018-07-09T22:16:08.367Z,95.60
2018-07-09T22:18:11.370Z,95.40
2018-07-09T22:20:14.566Z,95.50
2018-07-09T22:22:17.605Z,95.60
2018-07-09T22:24:20.750Z,95.40
2018-07-09T22:26:24.635Z,94.90
2018-07-09T22:28:28.479Z,93.80
2018-07-09T22:30:33.617Z,93.00
2018-07-09T22:32:38.732Z,93.00
2018-07-09T22:34:43.589Z,93.20
2018-07-09T22:36:48.439Z,92.80
2018-07-09T22:38:53.177Z,92.90
2018-07-09T22:40:57.863Z,93.00
2018-07-09T22:45:15.378Z,92.90
2018-07-09T22:47:20.084Z,93.00
2018-07-09T22:49:24.749Z,93.20
2018-07-09T22:51:29.656Z,93.00
2018-07-09T22:53:34.435Z,93.20
2018-07-09T22:55:55.829Z,93.10
2018-07-09T22:58:00.814Z,93.10
2018-07-09T23:00:05.739Z,93.00
2018-07-09T23:02:10.601Z,92.30
2018-07-09T23:04:15.404Z,91.60
2018-07-09T23:06:20.206Z,91.70
2018-07-09T23:08:25.007Z,91.50
2018-07-09T23:13:22.227Z,91.70
2018-07-09T23:15:43.606Z,91.80
2018-07-09T23:20:34.691Z,91.60
2018-07-09T23:22:37.524Z,91.40
2018-07-09T23:24:40.420Z,91.70
2018-07-09T23:26:43.426Z,91.70
2018-07-09T23:28:46.292Z,91.70
2018-07-09T23:30:49.272Z,91.20
2018-07-09T23:32:52.115Z,91.00
2018-07-09T23:34:54.918Z,91.10
2018-07-09T23:36:57.774Z,91.20
2018-07-09T23:39:00.669Z,91.20
2018-07-09T23:41:03.512Z,91.50
2018-07-09T23:43:06.419Z,91.80
2018-07-09T23:45:09.253Z,92.00
2018-07-09T23:47:12.191Z,92.00
2018-07-09T23:49:15.025Z,91.90
2018-07-09T23:51:18.018Z,91.80
2018-07-09T23:53:20.889Z,91.80
2018-07-09T23:55:23.732Z,91.80
2018-07-09T23:59:47.287Z,91.60
